createdAt,value
2019-04-16T00:00:42.755Z,12.17
2019-04-16T00:03:11.954Z,12.43
2019-04-16T00:06:00.126Z,11.73
2019-04-16T00:08:33.312Z,11.13
2019-04-16T00:11:06.455Z,11.83
2019-04-16T00:13:41.799Z,11.43
2019-04-16T00:16:12.951Z,11.03
2019-04-16T00:18:56.433Z,11.27
2019-04-16T00:21:30.434Z,11.03
2019-04-16T00:24:18.149Z,11.20
2019-04-16T00:26:46.515Z,11.43
2019-04-16T00:29:15.768Z,11.93
2019-04-16T00:31:49.788Z,11.13
2019-04-16T00:34:19.044Z,11.43
2019-04-16T00:36:49.361Z,11.17
2019-04-16T00:39:18.641Z,11.63
2019-04-16T00:41:47.839Z,11.33
2019-04-16T00:44:17.038Z,11.10
2019-04-16T00:46:46.297Z,11.70
2019-04-16T00:49:15.704Z,11.00
2019-04-16T00:51:44.994Z,11.43
2019-04-16T00:54:14.207Z,11.83
2019-04-16T00:56:46.511Z,11.80
2019-04-16T00:59:14.388Z,11.37
2019-04-16T01:01:43.640Z,11.07
2019-04-16T01:04:12.854Z,11.50
2019-04-16T01:06:42.090Z,11.30
2019-04-16T01:09:11.417Z,10.67
2019-04-16T01:11:40.770Z,11.40
2019-04-16T01:14:09.973Z,11.60
2019-04-16T01:16:39.236Z,10.73
2019-04-16T01:19:09.979Z,11.97
2019-04-16T01:21:39.397Z,11.00
2019-04-16T01:24:08.600Z,11.57
2019-04-16T01:26:37.865Z,11.10
2019-04-16T01:29:12.380Z,10.93
2019-04-16T01:32:09.826Z,10.93
2019-04-16T01:35:07.653Z,12.00
2019-04-16T01:37:56.778Z,10.97
2019-04-16T01:40:58.059Z,10.97
2019-04-16T01:43:27.327Z,11.33
2019-04-16T01:46:00.755Z,11.77
2019-04-16T01:48:27.847Z,11.10
2019-04-16T01:50:57.239Z,10.77
2019-04-16T01:53:26.481Z,10.60
2019-04-16T01:55:57.037Z,11.77
2019-04-16T01:58:26.908Z,11.83
2019-04-16T02:00:56.128Z,11.00
2019-04-16T02:03:25.389Z,11.30
2019-04-16T02:05:55.523Z,11.60
2019-04-16T02:08:24.823Z,11.50
2019-04-16T02:10:54.033Z,11.27
2019-04-16T02:13:23.277Z,11.60
2019-04-16T02:15:53.545Z,11.63
2019-04-16T02:18:23.587Z,11.70
2019-04-16T02:20:52.784Z,12.17
2019-04-16T02:23:21.982Z,10.80
2019-04-16T02:25:51.956Z,12.70
2019-04-16T02:28:21.824Z,11.73
2019-04-16T02:30:51.262Z,11.23
2019-04-16T02:33:20.458Z,12.47
2019-04-16T02:35:49.735Z,11.60
2019-04-16T02:38:18.932Z,10.90
2019-04-16T02:40:53.057Z,12.27
2019-04-16T02:43:19.108Z,11.83
2019-04-16T02:45:48.669Z,12.23
2019-04-16T02:48:17.863Z,11.97
2019-04-16T02:50:49.540Z,11.90
2019-04-16T02:53:43.547Z,11.47
2019-04-16T02:56:34.948Z,11.40
2019-04-16T02:59:13.560Z,12.13
2019-04-16T03:02:16.574Z,11.37
2019-04-16T03:04:49.690Z,11.73
2019-04-16T03:07:18.933Z,12.60
2019-04-16T03:10:00.749Z,12.00
2019-04-16T03:12:21.000Z,11.67
2019-04-16T03:14:50.885Z,11.93
2019-04-16T03:17:42.889Z,11.87
2019-04-16T03:20:13.604Z,12.33
2019-04-16T03:22:42.815Z,11.67
2019-04-16T03:25:14.022Z,11.47
2019-04-16T03:27:43.183Z,12.37
2019-04-16T03:30:12.863Z,12.00
2019-04-16T03:32:49.591Z,11.50
2019-04-16T03:35:18.834Z,12.43
2019-04-16T03:37:48.040Z,12.60
2019-04-16T03:40:18.869Z,12.70
2019-04-16T03:42:48.213Z,12.27
2019-04-16T03:45:17.470Z,12.60
2019-04-16T03:47:50.945Z,12.53
2019-04-16T03:50:17.994Z,11.83
2019-04-16T03:52:47.484Z,13.40
2019-04-16T03:55:17.023Z,12.70
2019-04-16T03:57:46.234Z,12.97
2019-04-16T04:00:15.788Z,12.20
2019-04-16T04:02:45.117Z,12.50
2019-04-16T04:05:14.686Z,12.63
2019-04-16T04:07:44.959Z,13.23
2019-04-16T04:10:28.843Z,12.40
2019-04-16T04:12:46.486Z,13.97
2019-04-16T04:15:15.916Z,12.37
2019-04-16T04:17:45.798Z,12.87
2019-04-16T04:20:18.418Z,12.30
2019-04-16T04:22:46.007Z,12.73
2019-04-16T04:25:15.246Z,13.00
2019-04-16T04:27:46.776Z,13.20
2019-04-16T04:30:16.673Z,13.73
2019-04-16T04:32:47.623Z,13.57
2019-04-16T04:35:20.219Z,13.73
2019-04-16T04:37:48.110Z,13.93
2019-04-16T04:40:17.702Z,13.30
2019-04-16T04:42:47.052Z,13.90
2019-04-16T04:45:16.259Z,14.80
2019-04-16T04:47:51.005Z,13.57
2019-04-16T04:50:16.920Z,14.30
2019-04-16T04:52:46.865Z,14.50
2019-04-16T04:55:16.159Z,14.77
2019-04-16T04:57:45.661Z,14.03
2019-04-16T05:00:15.129Z,15.07
2019-04-16T05:02:45.051Z,14.23
2019-04-16T05:05:34.093Z,13.93
2019-04-16T05:08:03.290Z,13.60
2019-04-16T05:10:32.526Z,14.30
2019-04-16T05:13:01.767Z,13.83
2019-04-16T05:15:31.005Z,14.83
2019-04-16T05:18:00.210Z,15.10
2019-04-16T05:20:29.963Z,14.97
2019-04-16T05:22:59.346Z,14.20
2019-04-16T05:25:32.914Z,13.67
2019-04-16T05:27:59.676Z,14.33
2019-04-16T05:30:28.998Z,14.73
2019-04-16T05:32:58.203Z,14.87
2019-04-16T05:35:27.406Z,13.90
2019-04-16T05:37:56.677Z,13.97
2019-04-16T05:40:28.026Z,14.17
2019-04-16T05:42:58.954Z,14.47
2019-04-16T05:45:28.051Z,14.57
2019-04-16T05:47:57.594Z,14.60
2019-04-16T05:50:29.690Z,15.23
2019-04-16T05:52:58.604Z,14.47
2019-04-16T05:55:42.901Z,15.03
2019-04-16T05:58:12.199Z,15.27
2019-04-16T06:00:45.795Z,15.83
2019-04-16T06:03:15.049Z,14.93
2019-04-16T06:05:44.248Z,14.57
2019-04-16T06:08:13.501Z,15.20
2019-04-16T06:10:42.728Z,14.97
2019-04-16T06:13:29.407Z,15.23
2019-04-16T06:16:14.211Z,15.90
2019-04-16T06:18:51.676Z,14.77
2019-04-16T06:21:38.815Z,13.50
2019-04-16T06:24:23.510Z,14.67
2019-04-16T06:27:07.647Z,14.67
2019-04-16T06:29:53.147Z,15.00
2019-04-16T06:32:39.791Z,14.57
2019-04-16T06:35:42.282Z,14.03
2019-04-16T06:38:05.227Z,14.80
2019-04-16T06:40:43.246Z,14.60
2019-04-16T06:43:27.369Z,14.77
2019-04-16T06:46:13.944Z,15.07
2019-04-16T06:49:05.632Z,15.43
2019-04-16T06:51:59.631Z,15.40
2019-04-16T06:54:56.093Z,15.53
2019-04-16T06:57:59.362Z,15.87
2019-04-16T07:00:46.300Z,14.90
2019-04-16T07:03:34.450Z,14.90
2019-04-16T07:06:21.017Z,15.63
2019-04-16T07:09:07.843Z,15.17
2019-04-16T07:11:37.358Z,15.93
2019-04-16T07:14:06.570Z,15.00
2019-04-16T07:16:35.830Z,15.97
2019-04-16T07:19:10.123Z,14.97
2019-04-16T07:21:36.022Z,15.97
2019-04-16T07:24:05.603Z,15.17
2019-04-16T07:26:38.379Z,15.30
2019-04-16T07:29:16.020Z,15.93
2019-04-16T07:32:04.531Z,13.83
2019-04-16T07:34:38.187Z,14.13
2019-04-16T07:37:35.587Z,15.27
2019-04-16T07:40:22.404Z,15.13
2019-04-16T07:43:09.206Z,16.33
2019-04-16T07:45:51.765Z,15.47
2019-04-16T07:48:39.981Z,16.70
2019-04-16T07:51:27.267Z,15.73
2019-04-16T07:54:06.426Z,15.67
2019-04-16T07:56:36.441Z,16.33
2019-04-16T07:59:05.690Z,15.53
2019-04-16T08:01:35.007Z,16.07
2019-04-16T08:04:04.553Z,16.77
2019-04-16T08:06:33.757Z,16.03
2019-04-16T08:09:03.337Z,16.23
2019-04-16T08:11:32.609Z,15.53
2019-04-16T08:14:02.121Z,15.53
2019-04-16T08:16:31.394Z,17.07
2019-04-16T08:19:00.600Z,17.07
2019-04-16T08:21:29.863Z,15.53
2019-04-16T08:24:16.759Z,15.17
2019-04-16T08:26:46.023Z,15.70
2019-04-16T08:29:15.220Z,15.57
2019-04-16T08:31:46.531Z,15.20
2019-04-16T08:34:15.759Z,15.57
2019-04-16T08:36:45.277Z,16.53
2019-04-16T08:39:15.428Z,16.70
2019-04-16T08:41:44.682Z,16.27
2019-04-16T08:44:13.880Z,15.47
2019-04-16T08:46:43.128Z,15.17
2019-04-16T08:49:15.052Z,16.03
2019-04-16T08:51:43.367Z,15.43
2019-04-16T08:54:17.746Z,14.63
2019-04-16T08:56:43.579Z,15.37
2019-04-16T08:59:12.774Z,15.27
2019-04-16T09:01:42.096Z,15.97
2019-04-16T09:04:11.896Z,15.30
2019-04-16T09:06:42.612Z,15.40
2019-04-16T09:09:29.709Z,14.90
2019-04-16T09:12:07.768Z,15.60
2019-04-16T09:14:38.499Z,15.07
2019-04-16T09:17:14.143Z,13.33
2019-04-16T09:19:47.446Z,14.77
2019-04-16T09:22:17.139Z,13.43
2019-04-16T09:25:12.502Z,11.77
2019-04-16T09:27:42.569Z,12.23
2019-04-16T09:30:29.607Z,12.13
2019-04-16T09:33:11.631Z,10.77
2019-04-16T09:35:58.282Z,13.10
2019-04-16T09:38:45.503Z,13.30
2019-04-16T09:41:19.782Z,12.93
2019-04-16T09:43:53.770Z,12.73
2019-04-16T09:46:48.124Z,12.40
2019-04-16T09:48:53.749Z,12.37
2019-04-16T09:51:26.247Z,12.43
2019-04-16T09:53:56.583Z,13.23
2019-04-16T09:56:32.542Z,13.17
2019-04-16T09:59:05.417Z,13.53
2019-04-16T10:01:46.486Z,12.20
2019-04-16T10:04:17.803Z,11.83
2019-04-16T10:06:47.023Z,10.30
2019-04-16T10:09:20.037Z,9.40
2019-04-16T10:11:47.204Z,7.97
2019-04-16T10:14:16.465Z,6.60
2019-04-16T10:16:45.682Z,6.23
2019-04-16T10:19:14.946Z,6.30
2019-04-16T10:21:44.289Z,7.10
2019-04-16T10:24:32.525Z,6.50
2019-04-16T10:27:04.368Z,6.63
2019-04-16T10:29:32.876Z,8.07
2019-04-16T10:32:02.093Z,8.33
2019-04-16T10:34:31.266Z,8.07
2019-04-16T10:37:00.502Z,8.05
2019-04-16T10:39:47.347Z,7.33
2019-04-16T10:42:38.642Z,8.63
2019-04-16T10:45:45.146Z,7.83
2019-04-16T10:48:32.345Z,8.33
2019-04-16T10:51:29.208Z,8.40
2019-04-16T10:54:17.652Z,7.83
2019-04-16T10:57:04.805Z,7.77
2019-04-16T11:00:05.258Z,7.20
2019-04-16T11:02:57.208Z,8.47
2019-04-16T11:05:35.692Z,8.90
2019-04-16T11:08:07.502Z,7.53
2019-04-16T11:10:36.201Z,8.43
2019-04-16T11:13:07.207Z,8.70
2019-04-16T11:15:37.500Z,9.63
2019-04-16T11:18:07.569Z,9.67
2019-04-16T11:20:36.740Z,8.17
2019-04-16T11:23:07.519Z,9.17
2019-04-16T11:25:36.988Z,10.57
2019-04-16T11:28:06.424Z,11.30
2019-04-16T11:30:48.902Z,7.30
2019-04-16T11:33:18.447Z,8.63
2019-04-16T11:35:52.840Z,9.57
2019-04-16T11:38:18.651Z,8.20
2019-04-16T11:40:47.889Z,7.73
2019-04-16T11:43:17.388Z,8.33
2019-04-16T11:45:46.896Z,8.13
2019-04-16T11:48:16.439Z,8.67
2019-04-16T11:50:45.775Z,8.20
2019-04-16T11:53:14.952Z,7.93
2019-04-16T11:55:44.245Z,8.97
2019-04-16T11:58:30.859Z,7.80
2019-04-16T12:01:11.542Z,8.20
2019-04-16T12:03:49.395Z,7.50
2019-04-16T12:06:28.692Z,7.77
2019-04-16T12:09:15.706Z,7.97
2019-04-16T12:11:54.277Z,7.90
2019-04-16T12:14:35.254Z,8.57
2019-04-16T12:17:23.677Z,7.60
2019-04-16T12:20:10.541Z,7.70
2019-04-16T12:22:45.056Z,8.20
2019-04-16T12:25:39.616Z,7.70
2019-04-16T12:28:42.190Z,7.33
2019-04-16T12:31:29.303Z,9.00
2019-04-16T12:34:24.550Z,8.30
2019-04-16T12:37:18.988Z,8.17
2019-04-16T12:40:00.319Z,8.37
2019-04-16T12:42:55.792Z,8.80
2019-04-16T12:45:42.696Z,9.27
2019-04-16T12:48:29.363Z,10.17
2019-04-16T12:51:32.593Z,9.00
2019-04-16T12:54:25.306Z,8.87
2019-04-16T12:57:16.691Z,9.07
2019-04-16T13:00:03.473Z,9.23
2019-04-16T13:03:06.870Z,9.77
2019-04-16T13:05:44.408Z,8.97
2019-04-16T13:08:29.323Z,9.37
2019-04-16T13:11:23.227Z,8.40
2019-04-16T13:14:29.766Z,9.37
2019-04-16T13:17:18.797Z,9.53
2019-04-16T13:20:04.209Z,9.00
2019-04-16T13:22:40.246Z,9.13
2019-04-16T13:25:16.531Z,8.40
2019-04-16T13:27:47.753Z,10.63
2019-04-16T13:30:17.232Z,10.60
2019-04-16T13:32:46.489Z,10.90
2019-04-16T13:35:15.811Z,10.47
2019-04-16T13:37:45.087Z,11.23
2019-04-16T13:40:15.749Z,10.77
2019-04-16T13:42:45.101Z,10.57
2019-04-16T13:45:47.410Z,11.47
2019-04-16T13:48:30.558Z,10.97
2019-04-16T13:51:03.164Z,10.23
2019-04-16T13:54:03.485Z,10.07
2019-04-16T13:56:44.527Z,10.90
2019-04-16T13:59:42.119Z,10.33
2019-04-16T14:02:47.854Z,10.10
2019-04-16T14:05:16.678Z,10.07
2019-04-16T14:07:45.864Z,9.37
2019-04-16T14:10:15.219Z,10.67
2019-04-16T14:12:44.414Z,9.93
2019-04-16T14:15:30.859Z,10.33
2019-04-16T14:17:53.106Z,10.30
2019-04-16T14:20:17.303Z,9.87
2019-04-16T14:22:46.522Z,9.63
2019-04-16T14:25:16.171Z,10.47
2019-04-16T14:27:45.382Z,9.33
2019-04-16T14:30:20.142Z,9.33
2019-04-16T14:32:49.367Z,8.80
2019-04-16T14:35:32.913Z,9.43
2019-04-16T14:37:55.075Z,9.33
2019-04-16T14:40:24.973Z,9.47
2019-04-16T14:42:57.543Z,9.70
2019-04-16T14:45:53.619Z,9.13
2019-04-16T14:48:10.197Z,9.07
2019-04-16T14:50:39.525Z,9.90
2019-04-16T14:53:09.077Z,10.37
2019-04-16T14:55:59.946Z,9.87
2019-04-16T14:58:37.764Z,9.57
2019-04-16T15:01:26.207Z,9.37
2019-04-16T15:04:12.862Z,8.83
2019-04-16T15:06:59.451Z,9.70
2019-04-16T15:09:46.600Z,9.57
2019-04-16T15:12:40.907Z,9.50
2019-04-16T15:15:17.425Z,9.53
2019-04-16T15:17:49.920Z,9.57
2019-04-16T15:20:36.801Z,9.50
2019-04-16T15:23:23.683Z,9.63
2019-04-16T15:25:59.248Z,8.77
2019-04-16T15:28:32.982Z,8.63
2019-04-16T15:31:16.633Z,8.80
2019-04-16T15:33:49.303Z,9.17
2019-04-16T15:36:22.177Z,8.90
2019-04-16T15:39:06.486Z,8.97
2019-04-16T15:42:09.825Z,9.13
2019-04-16T15:44:46.431Z,9.43
2019-04-16T15:47:26.755Z,8.33
2019-04-16T15:50:04.655Z,8.30
2019-04-16T15:52:40.587Z,8.00
2019-04-16T15:55:28.587Z,7.93
2019-04-16T15:58:13.267Z,8.13
2019-04-16T16:01:00.023Z,8.33
2019-04-16T16:03:46.595Z,8.17
2019-04-16T16:06:26.182Z,8.17
2019-04-16T16:09:11.501Z,8.53
2019-04-16T16:11:59.736Z,8.17
2019-04-16T16:14:33.179Z,10.00
2019-04-16T16:17:00.276Z,9.47
2019-04-16T16:19:29.526Z,9.53
2019-04-16T16:21:58.768Z,9.53
2019-04-16T16:24:28.303Z,9.67
2019-04-16T16:26:57.498Z,10.00
2019-04-16T16:29:26.842Z,10.50
2019-04-16T16:31:56.044Z,10.65
2019-04-16T16:34:25.511Z,10.28
2019-04-16T16:36:54.779Z,10.23
2019-04-16T16:39:23.987Z,10.78
2019-04-16T16:41:53.250Z,11.00
2019-04-16T16:44:22.455Z,10.48
2019-04-16T16:47:10.095Z,9.13
2019-04-16T16:49:39.306Z,10.30
2019-04-16T16:52:30.435Z,10.80
2019-04-16T16:55:01.615Z,11.37
2019-04-16T16:57:37.526Z,11.13
2019-04-16T17:00:25.020Z,10.63
2019-04-16T17:03:00.051Z,10.50
2019-04-16T17:05:31.868Z,10.57
2019-04-16T17:08:01.118Z,10.63
2019-04-16T17:10:30.489Z,11.30
2019-04-16T17:12:59.938Z,10.47
2019-04-16T17:15:29.149Z,10.57
2019-04-16T17:17:58.363Z,11.00
2019-04-16T17:20:27.617Z,11.00
2019-04-16T17:22:59.533Z,10.23
2019-04-16T17:25:36.705Z,10.53
2019-04-16T17:28:03.271Z,10.90
2019-04-16T17:30:33.844Z,10.07
2019-04-16T17:33:06.181Z,11.33
2019-04-16T17:35:36.909Z,10.93
2019-04-16T17:38:07.229Z,10.13
2019-04-16T17:40:50.607Z,10.00
2019-04-16T17:43:37.063Z,9.73
2019-04-16T17:46:25.309Z,10.13
2019-04-16T17:49:14.413Z,9.80
2019-04-16T17:51:53.849Z,9.73
2019-04-16T17:54:36.331Z,10.83
2019-04-16T17:57:43.082Z,10.53
2019-04-16T18:00:29.946Z,10.07
2019-04-16T18:03:21.293Z,10.07
2019-04-16T18:05:55.424Z,10.27
2019-04-16T18:08:52.555Z,9.83
2019-04-16T18:11:37.021Z,10.10
2019-04-16T18:14:25.200Z,9.50
2019-04-16T18:17:13.694Z,10.00
2019-04-16T18:20:06.297Z,10.33
2019-04-16T18:22:41.869Z,9.87
2019-04-16T18:25:37.381Z,10.27
2019-04-16T18:28:11.353Z,10.90
2019-04-16T18:30:55.634Z,10.53
2019-04-16T18:33:43.802Z,8.10
2019-04-16T18:36:41.194Z,8.10
2019-04-16T18:39:41.169Z,6.90
2019-04-16T18:42:35.386Z,7.37
2019-04-16T18:45:27.168Z,8.10
2019-04-16T18:48:05.614Z,6.40
2019-04-16T18:50:34.530Z,7.30
2019-04-16T18:53:09.544Z,7.37
2019-04-16T18:55:37.031Z,7.13
2019-04-16T18:58:06.340Z,6.83
2019-04-16T19:00:52.783Z,7.90
2019-04-16T19:03:22.149Z,8.63
2019-04-16T19:05:51.364Z,7.70
2019-04-16T19:08:20.646Z,8.17
2019-04-16T19:10:49.903Z,8.00
2019-04-16T19:13:27.509Z,7.27
2019-04-16T19:15:56.715Z,7.27
2019-04-16T19:18:26.000Z,8.13
2019-04-16T19:20:55.599Z,8.60
2019-04-16T19:23:25.313Z,7.63
2019-04-16T19:25:55.360Z,7.60
2019-04-16T19:28:25.524Z,7.60
2019-04-16T19:30:54.786Z,7.60
2019-04-16T19:33:25.386Z,8.97
2019-04-16T19:35:57.574Z,9.23
2019-04-16T19:38:26.846Z,9.77
2019-04-16T19:40:59.253Z,10.30
2019-04-16T19:43:34.134Z,9.10
2019-04-16T19:46:00.293Z,8.80
2019-04-16T19:48:35.720Z,9.97
2019-04-16T19:51:00.570Z,7.90
2019-04-16T19:53:29.912Z,9.30
2019-04-16T19:55:59.116Z,8.80
2019-04-16T19:58:28.434Z,9.17
2019-04-16T20:00:59.072Z,9.17
2019-04-16T20:03:30.551Z,9.43
2019-04-16T20:05:59.487Z,9.27
2019-04-16T20:08:34.359Z,9.30
2019-04-16T20:11:00.045Z,9.27
2019-04-16T20:13:29.853Z,9.50
2019-04-16T20:15:59.964Z,10.37
2019-04-16T20:18:29.812Z,10.20
2019-04-16T20:21:01.245Z,9.03
2019-04-16T20:23:30.602Z,9.43
2019-04-16T20:26:00.970Z,9.07
2019-04-16T20:28:30.340Z,9.30
2019-04-16T20:31:03.212Z,8.77
2019-04-16T20:33:30.527Z,8.27
2019-04-16T20:35:59.984Z,7.70
2019-04-16T20:38:30.152Z,7.43
2019-04-16T20:40:59.597Z,7.50
2019-04-16T20:43:28.839Z,8.07
2019-04-16T20:45:58.075Z,10.87
2019-04-16T20:48:27.339Z,9.33
2019-04-16T20:50:59.511Z,9.03
2019-04-16T20:53:28.164Z,9.23
2019-04-16T20:55:57.703Z,8.60
2019-04-16T20:58:31.078Z,8.23
2019-04-16T21:00:59.417Z,8.17
2019-04-16T21:03:30.990Z,7.60
2019-04-16T21:06:00.227Z,8.93
2019-04-16T21:08:29.775Z,8.47
2019-04-16T21:11:00.029Z,8.07
2019-04-16T21:13:29.322Z,8.60
2019-04-16T21:16:01.787Z,7.80
2019-04-16T21:18:29.536Z,8.00
2019-04-16T21:20:58.778Z,8.03
2019-04-16T21:23:28.067Z,8.27
2019-04-16T21:25:57.542Z,8.23
2019-04-16T21:28:35.036Z,8.17
2019-04-16T21:31:08.299Z,8.47
2019-04-16T21:34:08.574Z,8.07
2019-04-16T21:36:55.746Z,8.87
2019-04-16T21:39:29.881Z,8.33
2019-04-16T21:42:02.405Z,8.13
2019-04-16T21:44:30.062Z,7.83
2019-04-16T21:46:59.270Z,8.20
2019-04-16T21:49:38.398Z,10.00
2019-04-16T21:52:08.729Z,9.60
2019-04-16T21:54:38.967Z,9.27
2019-04-16T21:57:09.204Z,8.80
2019-04-16T21:59:39.420Z,8.80
2019-04-16T22:02:17.501Z,8.53
2019-04-16T22:04:47.067Z,8.70
2019-04-16T22:07:16.286Z,9.00
2019-04-16T22:09:45.779Z,8.60
2019-04-16T22:12:16.194Z,8.37
2019-04-16T22:14:45.514Z,8.17
2019-04-16T22:17:15.267Z,7.93
2019-04-16T22:19:53.995Z,8.43
2019-04-16T22:22:15.764Z,8.93
2019-04-16T22:24:48.308Z,8.80
2019-04-16T22:27:17.579Z,8.67
2019-04-16T22:29:47.532Z,8.37
2019-04-16T22:32:17.493Z,8.63
2019-04-16T22:34:46.732Z,8.57
2019-04-16T22:37:16.010Z,9.27
2019-04-16T22:40:04.214Z,8.87
2019-04-16T22:42:42.279Z,8.33
2019-04-16T22:45:29.200Z,8.67
2019-04-16T22:47:58.724Z,8.77
2019-04-16T22:50:28.008Z,8.70
2019-04-16T22:58:49.917Z,9.73
2019-04-16T23:01:20.536Z,8.30
2019-04-16T23:04:22.870Z,8.57
2019-04-16T23:10:13.287Z,9.00
2019-04-16T23:12:42.505Z,8.53
2019-04-16T23:15:13.353Z,8.70
2019-04-16T23:17:42.923Z,9.00
2019-04-16T23:20:28.158Z,8.73
2019-04-16T23:30:44.486Z,8.43
2019-04-16T23:33:13.725Z,8.47
2019-04-16T23:35:44.407Z,8.53
2019-04-16T23:38:14.201Z,8.47
2019-04-16T23:40:44.210Z,9.07
2019-04-16T23:43:24.765Z,8.47
2019-04-16T23:46:14.024Z,8.40
2019-04-16T23:48:49.442Z,8.53
2019-04-16T23:51:28.724Z,8.10
2019-04-16T23:54:01.545Z,9.60
2019-04-16T23:56:42.992Z,9.00
2019-04-16T23:59:25.393Z,9.20
